• Join FlightAware (Why Join?)
  • Login
  • US Flag 
11:13AM EDT


 

Airport Tracker/Info


-or-


 

Live Flight TrackerFlight Track Log ✈ TAM3023 ✈ 01-May-2013 ✈ SBBR / BSB - SBRJ / SDU

Flight Track Log - Related Links

Times and Time Zones

All times are in EDT time to prevent confusion due to time zone crossing. See the TAM3023 flight status page for this flight to view local times or setup timezone preferences in your user account.

Time Position Orientation Groundspeed Altitude Reporting Facility
EDT Latitude Longitude Course Direction KTS MPH feet Rate Location/Type
07:22AM -15.9590 -47.8140 120° Southeast 252 290 8,400  Level FlightAware
07:25AM -16.1810 -47.6723 148° Southeast  Level Estimated
07:26AM -16.2710 -47.6147 148° Southeast  Level Estimated
07:27AM -16.3610 -47.5571 148° Southeast  Level Estimated
07:28AM -16.4510 -47.4995 148° Southeast  Level Estimated
07:29AM -16.5409 -47.4418 148° Southeast  Level Estimated
07:29AM -16.5640 -47.5800 148° Southeast 392 451 23,300  Level FlightAware
07:30AM -16.6640 -47.5400 159° South 392 451 24,300 600 Climbing FlightAware
07:30AM -16.7210 -47.5170 159° South 392 451 24,300  Level FlightAware
07:31AM -16.7790 -47.4940 159° South 392 451 24,300  Level FlightAware
07:32AM -16.8370 -47.4710 159° South 392 451 24,300  Level FlightAware
07:32AM -16.8940 -47.4480 159° South 392 451 24,300  Level FlightAware
07:33AM -16.9660 -47.4190 159° South 392 451 24,300 1,740 Level FlightAware
07:36AM -17.1838 -47.2696 147° Southeast  Level Estimated
07:37AM -17.2927 -47.1946 147° Southeast  Level Estimated
07:37AM -17.4690 -47.0440 147° Southeast 34,600  Level FlightAware
07:38AM -17.4017 -47.1196 147° Southeast  Level Estimated
07:39AM -17.6460 -46.9330 149° Southeast 457 526 36,300  Level FlightAware
07:40AM -17.7290 -46.8820 150° Southeast 450 518 37,000 420 Climbing FlightAware
07:41AM -17.8090 -46.8320 149° Southeast 447 514 37,000  Level FlightAware
07:41AM -17.8840 -46.7840 149° Southeast 447 514 37,000  Level FlightAware
07:42AM -17.9440 -46.7460 149° Southeast 447 514 37,000  Level FlightAware
07:43AM -18.0050 -46.7080 149° Southeast 447 514 37,000  Level FlightAware
07:43AM -18.0650 -46.6700 149° Southeast 447 514 37,000  Level FlightAware
07:44AM -18.1250 -46.6320 149° Southeast 447 514 37,000  Level FlightAware
07:45AM -18.2000 -46.5840 149° Southeast 447 514 37,000  Level FlightAware
07:46AM -18.2610 -46.5460 149° Southeast 447 514 37,000  Level FlightAware
07:46AM -18.3210 -46.5080 149° Southeast 447 514 37,000  Level FlightAware
07:47AM -18.5240 -46.3840 150° Southeast 446 513 37,000  Level FlightAware
07:49AM -18.6850 -46.2820 149° Southeast 446 513 37,000  Level FlightAware
07:49AM -18.7620 -46.2340 149° Southeast 445 512 37,000  Level FlightAware
07:50AM -18.8220 -46.1960 149° Southeast 446 513 37,000  Level FlightAware
07:51AM -18.8950 -46.1500 149° Southeast 445 512 37,000  Level FlightAware
07:51AM -18.9940 -46.0880 149° Southeast 446 513 37,000  Level FlightAware
07:52AM -19.0910 -46.0260 149° Southeast 445 512 37,000  Level FlightAware
07:53AM -19.2070 -45.9530 149° Southeast 444 511 37,000  Level FlightAware
07:54AM -19.2870 -45.9040 150° Southeast 441 507 37,000  Level FlightAware
07:55AM -19.4020 -45.8350 150° Southeast 442 509 37,000  Level FlightAware
07:57AM -19.5360 -45.7540 150° Southeast 443 510 37,000  Level FlightAware
07:58AM -19.7270 -45.6310 145° Southeast 443 510 37,000  Level FlightAware
07:59AM -19.7173 -45.6185 145° Southeast  Level Estimated
08:01AM -19.9230 -45.4828 145° Southeast  Level Estimated
08:01AM -20.0200 -45.4430 145° Southeast 446 513 37,000  Level FlightAware
08:03AM -20.1700 -45.3470 149° Southeast 449 517 37,000  Level FlightAware
08:05AM -20.3490 -45.2075 144° Southeast  Level Estimated
08:06AM -20.4399 -45.1365 144° Southeast  Level Estimated
08:07AM -20.5308 -45.0653 144° Southeast  Level Estimated
08:07AM -20.6630 -44.9850 144° Southeast 455 524 37,000  Level FlightAware
08:10AM -20.8634 -44.8254 143° Southeast  Level Estimated
08:10AM -20.9940 -44.8010 143° Southeast 442 509 37,000  Level FlightAware
08:13AM -21.1906 -44.6356 142° Southeast  Level Estimated
08:14AM -21.2792 -44.5609 142° Southeast  Level Estimated
08:14AM -21.3140 -44.4600 142° Southeast 479 551 33,600  Level FlightAware
08:16AM -21.4615 -44.3417 143° Southeast  Level Estimated
08:16AM -21.5320 -44.2130 143° Southeast 441 507 28,500  Level FlightAware
08:17AM -21.5518 -44.2691 143° Southeast  Level Estimated
08:18AM -21.6390 -44.0930 134° Southeast 406 467 26,000  Level FlightAware
08:18AM -21.6830 -44.0420 133° Southeast 401 461 24,900 -900 Descending FlightAware
08:19AM -21.7280 -43.9900 133° Southeast 401 461 24,800 -120 Descending FlightAware
08:20AM -21.7710 -43.9400 133° Southeast 401 461 24,800 -2,280 Level FlightAware
08:21AM -21.8420 -43.8610 134° Southeast 374 430 21,000 -2,340 Descending FlightAware
08:22AM -21.9060 -43.8040 140° Southeast 367 422 20,400 -420 Descending FlightAware
08:22AM -21.9510 -43.7650 141° Southeast 367 422 20,400 -2,520 Level FlightAware
08:23AM -22.0310 -43.7450 167° South 340 391 17,100 -3,300 Descending FlightAware
08:24AM -22.0860 -43.7150 153° Southeast 334 384 16,000 -1,740 Descending FlightAware
08:24AM -22.1590 -43.6750 153° Southeast 324 373 14,500 -1,560 Descending FlightAware
08:25AM -22.2100 -43.6460 152° Southeast 313 360 13,700 -900 Descending FlightAware
08:26AM -22.2530 -43.6230 154° Southeast 290 334 13,300 -660 Descending FlightAware
08:26AM -22.3120 -43.5910 153° Southeast 260 299 12,800 -720 Descending FlightAware
08:27AM -22.3520 -43.5680 152° Southeast 244 281 12,300 -1,080 Descending FlightAware
08:28AM -22.3970 -43.5430 153° Southeast 242 278 11,300 -1,020 Descending FlightAware
08:29AM -22.4320 -43.5250 155° Southeast 242 278 10,900 -300 Descending FlightAware
08:29AM -22.4790 -43.4980 152° Southeast 240 276 10,900 -360 Level FlightAware
08:30AM -22.5250 -43.4260 125° Southeast 244 281 10,300 -780 Descending FlightAware
08:31AM -22.5150 -43.4280 350° North 248 285 9,800 -1,500 Descending FlightAware
08:31AM -22.4870 -43.4150 23° Northeast 252 290 9,300 -1,080 Descending FlightAware
08:31AM -22.4590 -43.4280 337° Northwest 248 285 8,900 -600 Descending FlightAware
08:32AM -22.4440 -43.4360 334° Northwest 246 283 8,900  Level FlightAware
08:32AM -22.4160 -43.4520 332° Northwest 249 287 8,900  Level FlightAware
08:32AM -22.4090 -43.4560 332° Northwest 248 285 8,900  Level FlightAware
08:33AM -22.4010 -43.4630 321° Northwest 247 284 8,900  Level FlightAware
08:33AM -22.4200 -43.5210 250° West 237 273 8,900 -300 Level FlightAware
08:34AM -22.4670 -43.5040 162° South 236 272 8,600 -660 Descending FlightAware
08:35AM -22.4860 -43.4940 154° Southeast 232 267 8,200 -840 Descending FlightAware
08:35AM -22.5090 -43.4820 154° Southeast 230 265 7,900 -900 Descending FlightAware
08:35AM -22.5460 -43.4610 152° Southeast 233 268 7,400 -780 Descending FlightAware
08:36AM -22.5500 -43.4590 155° Southeast 234 269 7,400  Level FlightAware
08:36AM -22.5960 -43.4340 153° Southeast 238 274 7,400 -120 Level FlightAware
08:37AM -22.6340 -43.4120 152° Southeast 232 267 7,300 -360 Descending FlightAware
08:37AM -22.6500 -43.4030 153° Southeast 227 261 7,100 -480 Descending FlightAware
08:38AM -22.6680 -43.3930 153° Southeast 218 251 6,900 -600 Descending FlightAware
08:38AM -22.6920 -43.3790 152° Southeast 204 235 6,600 -1,080 Descending FlightAware
08:39AM -22.7600 -43.3390 152° Southeast 200 230 5,300 -1,200 Descending FlightAware
08:40AM -22.7780 -43.3280 151° Southeast 196 226 4,900 -780 Descending FlightAware
08:40AM -22.7910 -43.3200 150° Southeast 195 224 4,600 -780 Descending FlightAware
08:41AM -22.8060 -43.3110 151° Southeast 193 222 4,200 -1,320 Descending FlightAware
08:41AM -22.8370 -43.2920 151° Southeast 187 215 3,400 -1,440 Descending FlightAware
08:42AM -22.8600 -43.2790 152° Southeast 174 200 2,800 -960 Descending FlightAware
08:42AM -22.8790 -43.2680 152° Southeast 145 167 2,300 -1,020 Descending FlightAware
08:43AM -22.8880 -43.2610 144° Southeast 143 165 1,900 -1,620 Descending FlightAware
08:43AM -22.8950 -43.2480 120° Southeast 137 158 1,500 -720 Descending FlightAware
08:44AM -22.9130 -43.2170 122° Southeast 129 148 1,200 -300 Descending FlightAware
08:44AM -22.9220 -43.2030 125° Southeast 132 152 1,200 -240 Level FlightAware
08:44AM -22.9360 -43.1900 139° Southeast 133 153 1,000 -540 Descending FlightAware
08:45AM -22.9470 -43.1740 127° Southeast 139 160 700 -600 Descending FlightAware
08:45AM -22.9450 -43.1680 70° East 140 161 600 -960 Descending FlightAware
08:45AM -22.9370 -43.1610 39° Northeast 142 163 300 -1,200 Descending FlightAware
08:46AM -22.9150 -43.1630 355° North 129 148 -480 Descending FlightAware
08:46AM -22.9000 -43.1640 356° North 129 148  Level FlightAware
08:49AM -22.9105 -43.1631 176° South  Level Estimated